EHEH

Eindhoven Airport

Eindhoven, The Netherlands
METAR EHEH 220625Z AUTO 14005KT 110V230 9999 BKN270 15/11 Q1013 BLU 16008KT CAVOK
Observed Flight Rules
Apr-22 @ 06:25 UTC (33 minutes ago) Visual Flight Rules
Wind Visibility Clouds
140° at 5 knots 10,000+ meters
  • Broken at 27,000' AGL
Temperatures Readings
Current 15°C / 59°F
Dewpoint 11°C / 52°F
Humidity 77%
Altimeter 29.91" Hg
Pressure 1013 hPa
Elevation 22
METAR EHEH 220625Z AUTO 14005KT 110V230 9999 BKN270 15/11 Q1013 BLU 16008KT CAVOK
Observed Flight Rules
Apr-22 @ 06:25 UTC
(33 minutes ago)
VFR
Wind Visibility
140° at 5 knots 10,000+ meters
Clouds
  • Broken at 27,000' AGL
Temperature Dewpoint
15°C / 59°F 11°C / 52°F
Humidity Altimeter Pressure
77% 29.91" Hg 1013 hPa